createdAt,value
2023-03-19T00:00:46.622Z,79.86
2023-03-19T00:01:49.192Z,80.19
2023-03-19T00:02:52.395Z,80.22
2023-03-19T00:03:55.469Z,81.22
2023-03-19T00:04:57.079Z,84.18
2023-03-19T00:05:59.658Z,84.76
2023-03-19T00:07:02.633Z,83.97
2023-03-19T00:08:05.567Z,83.88
2023-03-19T00:09:07.356Z,86.78
2023-03-19T00:10:10.534Z,86.72
2023-03-19T00:11:13.611Z,89.99
2023-03-19T00:12:16.236Z,90.66
2023-03-19T00:13:18.489Z,90.09
2023-03-19T00:14:21.349Z,90.61
2023-03-19T00:15:23.151Z,90.46
2023-03-19T00:16:25.844Z,92.09
2023-03-19T00:17:27.808Z,92.25
2023-03-19T00:18:30.696Z,91.66
2023-03-19T00:19:32.234Z,90.71
2023-03-19T00:20:35.120Z,89.92
2023-03-19T00:21:36.767Z,89.43
2023-03-19T00:22:40.889Z,88.12
2023-03-19T00:23:42.841Z,86.73
2023-03-19T00:24:45.652Z,85.31
2023-03-19T00:25:47.431Z,84.43
2023-03-19T00:26:50.100Z,84.18
2023-03-19T00:27:52.838Z,82.75
2023-03-19T00:28:56.148Z,82.16
2023-03-19T00:29:57.800Z,82.26
2023-03-19T00:31:08.549Z,81.78
2023-03-19T00:32:10.134Z,81.44
2023-03-19T00:33:13.120Z,81.75
2023-03-19T00:34:18.309Z,81.79
2023-03-19T00:35:20.827Z,81.53
2023-03-19T00:36:23.405Z,81.17
2023-03-19T00:37:26.071Z,81.25
2023-03-19T00:38:29.281Z,80.83
2023-03-19T00:39:32.236Z,80.66
2023-03-19T00:40:33.770Z,80.36
2023-03-19T00:41:36.334Z,80.36
2023-03-19T00:42:37.888Z,80.77
2023-03-19T00:43:41.187Z,81.03
2023-03-19T00:44:42.812Z,81.09
2023-03-19T00:45:45.438Z,80.33
2023-03-19T00:46:47.081Z,80.82
2023-03-19T00:47:49.659Z,80.59
2023-03-19T00:48:55.571Z,80.19
2023-03-19T00:49:58.087Z,80.08
2023-03-19T00:51:02.919Z,79.34
2023-03-19T00:52:05.935Z,78.53
2023-03-19T00:53:07.635Z,78.04
2023-03-19T00:54:14.820Z,78.66
2023-03-19T00:55:16.786Z,78.58
2023-03-19T00:56:20.151Z,78.66
2023-03-19T00:57:22.325Z,78.82
2023-03-19T00:58:25.081Z,79.34
2023-03-19T00:59:26.848Z,80.94
2023-03-19T01:00:29.731Z,80.29
2023-03-19T01:01:32.096Z,80.58
2023-03-19T01:02:34.631Z,81.74
2023-03-19T01:03:36.727Z,82.11
2023-03-19T01:04:39.549Z,81.36
2023-03-19T01:05:41.505Z,82.93
2023-03-19T01:06:44.104Z,84.58
2023-03-19T01:07:46.048Z,86.84
2023-03-19T01:08:48.897Z,85.73
2023-03-19T01:09:52.054Z,84.27
2023-03-19T01:10:54.847Z,82.96
2023-03-19T01:11:57.033Z,82.18
2023-03-19T01:12:59.495Z,81.51
2023-03-19T01:14:01.561Z,80.59
2023-03-19T01:15:06.970Z,80.75
2023-03-19T01:16:08.833Z,78.66
2023-03-19T01:17:11.427Z,79.61
2023-03-19T01:18:13.261Z,82.26
2023-03-19T01:19:16.404Z,82.59
2023-03-19T01:20:19.110Z,82.87
2023-03-19T01:21:22.387Z,81.70
2023-03-19T01:22:23.931Z,81.25
2023-03-19T01:23:26.478Z,80.97
2023-03-19T01:24:29.680Z,80.32
2023-03-19T01:25:34.257Z,80.32
2023-03-19T01:26:35.946Z,79.95
2023-03-19T01:27:38.475Z,79.01
2023-03-19T01:28:40.037Z,78.21
2023-03-19T01:29:42.732Z,78.95
2023-03-19T01:30:44.738Z,79.27
2023-03-19T01:31:47.244Z,82.22
2023-03-19T01:32:49.007Z,82.14
2023-03-19T01:33:52.701Z,80.90
2023-03-19T01:34:54.330Z,80.09
2023-03-19T01:35:58.031Z,79.59
2023-03-19T01:36:59.566Z,78.99
2023-03-19T01:38:05.065Z,78.38
2023-03-19T01:39:07.035Z,78.44
2023-03-19T01:40:13.282Z,77.90
2023-03-19T01:41:16.401Z,77.92
2023-03-19T01:42:19.180Z,77.71
2023-03-19T01:43:22.989Z,77.38
2023-03-19T01:44:27.706Z,76.26
2023-03-19T01:45:36.761Z,75.94
2023-03-19T01:46:40.376Z,76.07
2023-03-19T01:47:44.349Z,75.92
2023-03-19T01:48:50.891Z,75.71
2023-03-19T01:49:54.700Z,75.53
2023-03-19T01:50:58.943Z,75.38
2023-03-19T01:52:04.713Z,76.10
2023-03-19T01:53:09.074Z,75.92
2023-03-19T01:54:14.678Z,75.62
2023-03-19T01:55:17.341Z,75.25
2023-03-19T01:56:24.191Z,74.83
2023-03-19T01:57:27.172Z,74.73
2023-03-19T01:58:29.260Z,74.59
2023-03-19T01:59:35.771Z,74.85
2023-03-19T02:00:39.046Z,74.38
2023-03-19T02:01:48.142Z,74.17
2023-03-19T02:02:53.611Z,73.89
2023-03-19T02:03:57.286Z,74.05
2023-03-19T02:05:02.887Z,74.09
2023-03-19T02:06:06.384Z,74.57
2023-03-19T02:07:09.394Z,74.53
2023-03-19T02:08:16.038Z,74.28
2023-03-19T02:09:19.479Z,74.37
2023-03-19T02:10:23.703Z,74.55
2023-03-19T02:11:28.110Z,74.27
2023-03-19T02:12:29.656Z,74.44
2023-03-19T02:13:32.281Z,74.80
2023-03-19T02:14:34.098Z,74.36
2023-03-19T02:15:36.773Z,74.44
2023-03-19T02:16:38.359Z,74.57
2023-03-19T02:17:42.004Z,74.83
2023-03-19T02:18:44.620Z,75.31
2023-03-19T02:19:52.387Z,75.92
2023-03-19T02:21:01.171Z,76.89
2023-03-19T02:22:05.581Z,76.59
2023-03-19T02:23:14.385Z,75.84
2023-03-19T02:24:21.009Z,75.71
2023-03-19T02:25:31.006Z,75.63
2023-03-19T02:26:35.939Z,75.72
2023-03-19T02:27:37.948Z,75.40
2023-03-19T02:28:44.185Z,74.72
2023-03-19T02:29:46.062Z,74.48
2023-03-19T02:30:48.906Z,74.59
2023-03-19T02:31:50.884Z,76.51
2023-03-19T02:32:53.568Z,77.73
2023-03-19T02:33:59.509Z,77.18
2023-03-19T02:35:02.090Z,76.67
2023-03-19T02:36:06.389Z,75.86
2023-03-19T02:37:14.011Z,75.74
2023-03-19T02:38:16.089Z,76.00
2023-03-19T02:39:23.689Z,75.72
2023-03-19T02:40:30.108Z,77.61
2023-03-19T02:41:35.325Z,78.57
2023-03-19T02:42:37.205Z,81.39
2023-03-19T02:43:41.962Z,82.78
2023-03-19T02:44:43.529Z,83.45
2023-03-19T02:45:46.245Z,83.03
2023-03-19T02:46:47.859Z,82.99
2023-03-19T02:47:50.579Z,81.84
2023-03-19T02:48:52.602Z,81.04
2023-03-19T02:49:55.272Z,82.04
2023-03-19T02:50:57.047Z,85.30
2023-03-19T02:51:59.580Z,86.83
2023-03-19T02:53:01.274Z,86.49
2023-03-19T02:54:03.905Z,85.98
2023-03-19T02:55:06.636Z,84.54
2023-03-19T02:56:09.613Z,82.99
2023-03-19T02:57:12.712Z,82.48
2023-03-19T02:58:15.530Z,81.66
2023-03-19T02:59:17.065Z,81.56
2023-03-19T03:00:21.066Z,82.02
2023-03-19T03:01:23.034Z,83.00
2023-03-19T03:02:26.454Z,82.20
2023-03-19T03:03:28.148Z,81.91
2023-03-19T03:04:30.946Z,81.89
2023-03-19T03:05:33.100Z,81.39
2023-03-19T03:06:35.621Z,80.70
2023-03-19T03:07:37.689Z,79.88
2023-03-19T03:08:40.343Z,79.17
2023-03-19T03:09:42.093Z,79.34
2023-03-19T03:10:44.995Z,79.39
2023-03-19T03:11:47.133Z,78.38
2023-03-19T03:12:51.580Z,77.78
2023-03-19T03:13:53.340Z,77.90
2023-03-19T03:14:56.019Z,77.53
2023-03-19T03:15:57.654Z,77.04
2023-03-19T03:17:00.465Z,78.37
2023-03-19T03:18:02.050Z,77.55
2023-03-19T03:19:04.852Z,77.44
2023-03-19T03:20:08.209Z,79.12
2023-03-19T03:21:11.756Z,77.68
2023-03-19T03:22:13.252Z,77.37
2023-03-19T03:23:15.761Z,79.81
2023-03-19T03:24:17.305Z,79.47
2023-03-19T03:25:21.060Z,82.10
2023-03-19T03:26:22.631Z,81.68
2023-03-19T03:27:25.155Z,82.17
2023-03-19T03:28:28.152Z,83.00
2023-03-19T03:29:30.696Z,84.39
2023-03-19T03:30:32.804Z,84.71
2023-03-19T03:31:35.715Z,85.24
2023-03-19T03:32:38.959Z,85.07
2023-03-19T03:33:41.637Z,84.29
2023-03-19T03:34:43.512Z,82.58
2023-03-19T03:35:46.406Z,81.21
2023-03-19T03:36:47.946Z,80.22
2023-03-19T03:37:51.267Z,79.41
2023-03-19T03:38:53.690Z,79.52
2023-03-19T03:39:56.187Z,79.54
2023-03-19T03:40:57.659Z,79.31
2023-03-19T03:42:00.109Z,79.74
2023-03-19T03:43:02.426Z,79.97
2023-03-19T03:44:06.797Z,80.62
2023-03-19T03:45:10.677Z,83.07
2023-03-19T03:46:13.726Z,82.87
2023-03-19T03:47:15.385Z,84.82
2023-03-19T03:48:18.563Z,85.02
2023-03-19T03:49:20.516Z,83.56
2023-03-19T03:50:22.996Z,84.02
2023-03-19T03:51:26.126Z,86.53
2023-03-19T03:52:31.537Z,88.46
2023-03-19T03:53:34.134Z,89.82
2023-03-19T03:54:35.899Z,89.60
2023-03-19T03:55:38.715Z,90.82
2023-03-19T03:56:40.344Z,91.02
2023-03-19T03:57:42.840Z,90.40
2023-03-19T03:58:44.634Z,90.19
2023-03-19T03:59:48.439Z,90.27
2023-03-19T04:00:50.694Z,92.57
2023-03-19T04:01:53.262Z,94.70
2023-03-19T04:02:54.951Z,95.50
2023-03-19T04:03:57.904Z,95.18
2023-03-19T04:04:59.416Z,93.87
2023-03-19T04:06:01.993Z,92.39
2023-03-19T04:07:03.487Z,90.59
2023-03-19T04:08:08.690Z,88.87
2023-03-19T04:09:10.225Z,87.66
2023-03-19T04:10:14.040Z,88.86
2023-03-19T04:11:15.592Z,90.31
2023-03-19T04:12:18.138Z,91.43
2023-03-19T04:13:20.565Z,92.34
2023-03-19T04:14:23.025Z,91.65
2023-03-19T04:15:26.095Z,89.69
2023-03-19T04:16:29.299Z,88.02
2023-03-19T04:17:30.852Z,86.31
2023-03-19T04:18:33.560Z,85.64
2023-03-19T04:19:35.434Z,85.00
2023-03-19T04:20:38.020Z,84.04
2023-03-19T04:21:39.669Z,83.30
2023-03-19T04:22:42.139Z,84.98
2023-03-19T04:23:43.658Z,88.00
2023-03-19T04:24:46.430Z,88.25
2023-03-19T04:25:48.241Z,87.26
2023-03-19T04:26:51.124Z,85.90
2023-03-19T04:27:52.921Z,85.51
2023-03-19T04:28:55.739Z,84.83
2023-03-19T04:29:57.290Z,85.38
2023-03-19T04:31:02.054Z,86.91
2023-03-19T04:32:04.249Z,89.72
2023-03-19T04:33:06.974Z,90.32
2023-03-19T04:34:08.593Z,89.22
2023-03-19T04:35:11.981Z,87.96
2023-03-19T04:36:13.766Z,86.90
2023-03-19T04:37:16.277Z,85.77
2023-03-19T04:38:18.166Z,86.65
2023-03-19T04:39:20.921Z,88.23
2023-03-19T04:40:22.554Z,88.70
2023-03-19T04:41:26.037Z,88.46
2023-03-19T04:42:27.623Z,86.90
2023-03-19T04:43:30.149Z,87.60
2023-03-19T04:44:32.094Z,91.21
2023-03-19T04:45:34.864Z,93.11
2023-03-19T04:46:38.277Z,94.07
2023-03-19T04:47:40.760Z,93.96
2023-03-19T04:48:42.667Z,94.32
2023-03-19T04:49:45.286Z,94.07
2023-03-19T04:50:47.386Z,96.78
2023-03-19T04:51:50.001Z,99.20
2023-03-19T04:52:51.728Z,99.77
2023-03-19T04:53:54.886Z,100.00
2023-03-19T04:54:56.446Z,100.00
2023-03-19T04:55:58.948Z,100.00
2023-03-19T04:57:01.011Z,100.00
2023-03-19T04:58:03.869Z,100.00
2023-03-19T04:59:05.469Z,100.00
2023-03-19T05:00:09.812Z,100.00
2023-03-19T05:01:12.173Z,100.00
2023-03-19T05:02:16.085Z,100.00
2023-03-19T05:03:17.640Z,100.00
2023-03-19T05:04:20.640Z,98.69
2023-03-19T05:05:22.243Z,97.52
2023-03-19T05:06:24.708Z,97.71
2023-03-19T05:07:26.491Z,98.02
2023-03-19T05:08:29.026Z,97.36
2023-03-19T05:09:30.954Z,97.10
2023-03-19T05:10:34.778Z,97.67
2023-03-19T05:11:37.204Z,97.52
2023-03-19T05:12:40.063Z,97.70
2023-03-19T05:13:41.550Z,97.65
2023-03-19T05:14:44.105Z,97.50
2023-03-19T05:15:46.384Z,95.80
2023-03-19T05:16:48.955Z,93.96
2023-03-19T05:17:51.906Z,92.68
2023-03-19T05:18:54.429Z,90.72
2023-03-19T05:19:57.047Z,89.30
2023-03-19T05:20:59.839Z,88.30
2023-03-19T05:22:01.427Z,87.91
2023-03-19T05:23:04.511Z,87.28
2023-03-19T05:24:06.136Z,87.58
2023-03-19T05:25:09.743Z,90.26
2023-03-19T05:26:11.756Z,91.58
2023-03-19T05:27:14.506Z,91.76
2023-03-19T05:28:16.227Z,93.55
2023-03-19T05:29:18.748Z,95.81
2023-03-19T05:30:20.421Z,95.65
2023-03-19T05:31:23.677Z,95.67
2023-03-19T05:32:25.566Z,95.12
2023-03-19T05:33:29.472Z,95.38
2023-03-19T05:34:31.466Z,93.64
2023-03-19T05:35:34.728Z,92.12
2023-03-19T05:36:36.305Z,90.73
2023-03-19T05:37:38.754Z,90.21
2023-03-19T05:38:40.693Z,89.06
2023-03-19T05:39:43.245Z,88.36
2023-03-19T05:40:45.065Z,87.41
2023-03-19T05:41:47.754Z,86.89
2023-03-19T05:42:49.833Z,86.22
2023-03-19T05:43:52.285Z,85.62
2023-03-19T05:44:53.879Z,85.12
2023-03-19T05:45:56.932Z,84.94
2023-03-19T05:46:58.444Z,85.78
2023-03-19T05:48:00.963Z,88.41
2023-03-19T05:49:03.896Z,90.58
2023-03-19T05:50:07.131Z,90.47
2023-03-19T05:51:09.326Z,90.37
2023-03-19T05:52:12.099Z,88.85
2023-03-19T05:53:13.978Z,88.10
2023-03-19T05:54:16.554Z,87.07
2023-03-19T05:55:18.227Z,86.95
2023-03-19T05:56:20.860Z,88.27
2023-03-19T05:57:22.362Z,88.18
2023-03-19T05:58:25.176Z,87.30
2023-03-19T05:59:26.721Z,86.56
2023-03-19T06:00:29.242Z,86.32
2023-03-19T06:01:31.040Z,86.46
2023-03-19T06:02:34.101Z,87.96
2023-03-19T06:03:37.262Z,88.96
2023-03-19T06:04:40.231Z,88.38
2023-03-19T06:05:43.011Z,87.21
2023-03-19T06:06:44.567Z,86.29
2023-03-19T06:07:47.083Z,85.22
2023-03-19T06:08:49.034Z,84.92
2023-03-19T06:09:51.926Z,84.52
2023-03-19T06:10:53.866Z,85.51
2023-03-19T06:11:56.540Z,89.13
2023-03-19T06:12:58.151Z,92.56
2023-03-19T06:14:00.896Z,93.98
2023-03-19T06:15:02.722Z,94.89
2023-03-19T06:16:06.231Z,94.28
2023-03-19T06:17:09.260Z,93.25
2023-03-19T06:18:11.899Z,91.29
2023-03-19T06:19:13.422Z,90.01
2023-03-19T06:20:17.806Z,89.04
2023-03-19T06:21:20.751Z,89.49
2023-03-19T06:22:22.579Z,90.23
2023-03-19T06:23:25.085Z,90.77
2023-03-19T06:24:26.942Z,90.82
2023-03-19T06:25:29.524Z,90.11
2023-03-19T06:26:31.195Z,90.52
2023-03-19T06:27:33.691Z,90.50
2023-03-19T06:28:35.195Z,89.64
2023-03-19T06:29:37.839Z,88.94
2023-03-19T06:30:40.414Z,87.35
2023-03-19T06:31:41.956Z,85.68
2023-03-19T06:32:44.529Z,84.76
2023-03-19T06:33:46.065Z,84.05
2023-03-19T06:34:48.544Z,83.75
2023-03-19T06:35:51.516Z,83.84
2023-03-19T06:36:54.388Z,84.38
2023-03-19T06:37:56.025Z,84.94
2023-03-19T06:38:58.534Z,84.26
2023-03-19T06:40:00.353Z,83.86
2023-03-19T06:41:02.944Z,83.10
2023-03-19T06:42:04.857Z,83.03
2023-03-19T06:43:07.350Z,83.52
2023-03-19T06:44:08.898Z,82.96
2023-03-19T06:45:12.502Z,83.09
2023-03-19T06:46:14.162Z,82.53
2023-03-19T06:47:16.774Z,82.83
2023-03-19T06:48:18.906Z,83.14
2023-03-19T06:49:21.961Z,84.16
2023-03-19T06:50:23.583Z,84.38
2023-03-19T06:51:27.714Z,84.17
2023-03-19T06:52:29.297Z,83.21
2023-03-19T06:53:32.309Z,82.48
2023-03-19T06:54:33.856Z,82.01
2023-03-19T06:55:37.500Z,81.00
2023-03-19T06:56:40.017Z,80.34
2023-03-19T06:57:41.674Z,80.31
2023-03-19T06:58:44.187Z,79.85
2023-03-19T06:59:46.026Z,80.08
2023-03-19T07:00:48.748Z,80.14
2023-03-19T07:01:50.364Z,79.63
2023-03-19T07:02:52.914Z,78.21
2023-03-19T07:03:54.511Z,78.53
2023-03-19T07:04:57.468Z,78.17
2023-03-19T07:05:59.163Z,77.21
2023-03-19T07:07:05.339Z,76.11
2023-03-19T07:08:11.772Z,75.80
2023-03-19T07:09:14.520Z,75.69
2023-03-19T07:10:18.614Z,76.03
2023-03-19T07:11:21.153Z,75.57
2023-03-19T07:12:22.726Z,74.97
2023-03-19T07:13:25.583Z,74.54
2023-03-19T07:14:28.165Z,73.83
2023-03-19T07:15:29.917Z,73.65
2023-03-19T07:16:32.877Z,72.92
2023-03-19T07:17:34.600Z,72.77
2023-03-19T07:18:39.780Z,73.35
2023-03-19T07:19:42.340Z,73.55
2023-03-19T07:20:43.982Z,73.25
2023-03-19T07:21:46.774Z,72.57
2023-03-19T07:22:51.759Z,72.42
2023-03-19T07:23:54.312Z,72.73
2023-03-19T07:24:55.826Z,72.15
2023-03-19T07:25:58.571Z,71.73
2023-03-19T07:27:02.332Z,71.49
2023-03-19T07:28:04.448Z,71.08
2023-03-19T07:29:07.218Z,70.88
2023-03-19T07:30:10.056Z,71.17
2023-03-19T07:31:13.170Z,70.33
2023-03-19T07:32:15.143Z,71.00
2023-03-19T07:33:17.886Z,71.26
2023-03-19T07:34:19.390Z,71.69
2023-03-19T07:35:22.491Z,72.70
2023-03-19T07:36:24.100Z,72.65
2023-03-19T07:37:26.560Z,73.06
2023-03-19T07:38:30.467Z,73.12
2023-03-19T07:39:32.336Z,72.59
2023-03-19T07:40:35.192Z,72.04
2023-03-19T07:41:37.089Z,72.00
2023-03-19T07:42:40.065Z,72.10
2023-03-19T07:43:41.583Z,72.78
2023-03-19T07:44:44.086Z,72.75
2023-03-19T07:45:45.619Z,71.99
2023-03-19T07:46:48.083Z,71.61
2023-03-19T07:47:50.439Z,71.21
2023-03-19T07:48:56.317Z,71.91
2023-03-19T07:49:59.265Z,71.22
2023-03-19T07:51:01.855Z,71.34
2023-03-19T07:52:04.561Z,70.92
2023-03-19T07:53:06.445Z,70.84
2023-03-19T07:54:10.295Z,70.56
2023-03-19T07:55:11.834Z,70.37
2023-03-19T07:56:14.391Z,70.40
2023-03-19T07:57:16.598Z,70.83
2023-03-19T07:58:19.473Z,70.83
2023-03-19T07:59:22.181Z,70.53
2023-03-19T08:00:24.162Z,69.94
2023-03-19T08:01:27.082Z,70.27
2023-03-19T08:02:28.650Z,70.20
2023-03-19T08:03:31.307Z,70.09
2023-03-19T08:04:32.923Z,70.15
2023-03-19T08:05:35.488Z,69.95
2023-03-19T08:06:38.648Z,70.06
2023-03-19T08:07:41.330Z,71.49
2023-03-19T08:08:44.060Z,71.73
2023-03-19T08:09:47.115Z,71.30
2023-03-19T08:10:52.674Z,71.47
2023-03-19T08:11:54.222Z,72.61
2023-03-19T08:12:56.739Z,73.27
2023-03-19T08:13:58.285Z,72.64
2023-03-19T08:15:01.216Z,72.73
2023-03-19T08:16:02.973Z,73.30
2023-03-19T08:17:05.700Z,72.67
2023-03-19T08:18:07.646Z,73.93
2023-03-19T08:19:10.096Z,73.58
2023-03-19T08:20:14.331Z,72.81
2023-03-19T08:21:16.949Z,72.03
2023-03-19T08:22:18.730Z,71.87
2023-03-19T08:23:21.197Z,72.19
2023-03-19T08:24:23.097Z,71.92
2023-03-19T08:25:27.439Z,71.42
2023-03-19T08:26:29.938Z,71.00
2023-03-19T08:27:31.599Z,71.00
2023-03-19T08:28:34.198Z,70.73
2023-03-19T08:29:36.027Z,69.76
2023-03-19T08:30:38.827Z,71.16
2023-03-19T08:31:40.755Z,70.94
2023-03-19T08:32:44.848Z,73.44
2023-03-19T08:33:47.106Z,72.72
2023-03-19T08:34:49.887Z,72.92
2023-03-19T08:35:53.006Z,72.88
2023-03-19T08:36:54.908Z,72.51
2023-03-19T08:37:57.699Z,72.37
2023-03-19T08:38:59.564Z,72.58
2023-03-19T08:40:02.083Z,72.16
2023-03-19T08:41:06.348Z,71.52
2023-03-19T08:42:08.849Z,70.87
2023-03-19T08:43:11.314Z,70.59
2023-03-19T08:44:13.090Z,70.49
2023-03-19T08:45:17.090Z,69.97
2023-03-19T08:46:18.937Z,69.41
2023-03-19T08:47:24.371Z,69.43
2023-03-19T08:48:27.089Z,69.60
2023-03-19T08:49:28.647Z,69.09
2023-03-19T08:50:31.151Z,68.54
2023-03-19T08:51:32.763Z,68.93
2023-03-19T08:52:35.700Z,68.86
2023-03-19T08:53:38.631Z,68.39
2023-03-19T08:54:41.100Z,68.00
2023-03-19T08:55:43.996Z,67.79
2023-03-19T08:56:48.060Z,67.54
2023-03-19T08:57:49.579Z,67.61
2023-03-19T08:58:54.785Z,68.84
2023-03-19T08:59:56.358Z,69.99
2023-03-19T09:01:02.951Z,71.13
2023-03-19T09:02:05.927Z,71.66
2023-03-19T09:03:07.625Z,73.42
2023-03-19T09:04:10.150Z,73.93
2023-03-19T09:05:11.751Z,73.97
2023-03-19T09:06:15.694Z,74.41
2023-03-19T09:07:17.410Z,73.27
2023-03-19T09:08:20.377Z,73.00
2023-03-19T09:09:24.621Z,72.19
2023-03-19T09:10:27.327Z,73.02
2023-03-19T09:11:29.887Z,73.44
2023-03-19T09:12:33.945Z,72.49
2023-03-19T09:13:36.688Z,71.87
2023-03-19T09:14:39.868Z,71.67
2023-03-19T09:15:42.570Z,71.12
2023-03-19T09:16:44.138Z,71.00
2023-03-19T09:17:46.844Z,70.26
2023-03-19T09:18:48.617Z,69.24
2023-03-19T09:19:51.161Z,68.59
2023-03-19T09:20:53.835Z,68.40
2023-03-19T09:21:56.572Z,67.62
2023-03-19T09:22:58.118Z,67.61
2023-03-19T09:24:00.914Z,67.17
2023-03-19T09:25:02.804Z,66.61
2023-03-19T09:26:05.724Z,66.23
2023-03-19T09:27:07.399Z,66.71
2023-03-19T09:28:11.342Z,67.26
2023-03-19T09:29:13.134Z,68.66
2023-03-19T09:30:15.982Z,69.67
2023-03-19T09:31:17.855Z,71.05
2023-03-19T09:32:20.970Z,72.16
2023-03-19T09:33:22.619Z,73.51
2023-03-19T09:34:25.782Z,73.96
2023-03-19T09:35:31.330Z,73.70
2023-03-19T09:36:34.586Z,72.84
2023-03-19T09:37:36.741Z,71.96
2023-03-19T09:38:39.578Z,70.44
2023-03-19T09:39:42.253Z,68.70
2023-03-19T09:40:47.218Z,67.49
2023-03-19T09:42:03.888Z,66.37
2023-03-19T09:43:26.315Z,66.26
2023-03-19T09:44:31.679Z,64.92
2023-03-19T09:45:33.594Z,65.17
2023-03-19T09:46:43.395Z,66.24
2023-03-19T09:47:46.627Z,66.70
2023-03-19T09:48:55.093Z,66.71
2023-03-19T09:50:01.282Z,66.34
2023-03-19T09:51:06.688Z,66.10
2023-03-19T09:52:22.446Z,66.28
2023-03-19T09:53:35.644Z,66.00
2023-03-19T09:54:43.750Z,65.74
2023-03-19T09:55:49.776Z,65.17
2023-03-19T09:56:51.439Z,65.75
2023-03-19T09:57:55.841Z,64.49
2023-03-19T09:58:59.272Z,64.96
2023-03-19T10:00:01.808Z,63.74
2023-03-19T10:01:04.326Z,63.37
2023-03-19T10:02:28.887Z,62.98
2023-03-19T10:03:44.451Z,63.75
2023-03-19T10:05:01.171Z,63.73
2023-03-19T10:06:20.651Z,62.78
2023-03-19T10:07:36.793Z,62.84
2023-03-19T10:08:55.728Z,62.91
2023-03-19T10:10:14.025Z,62.17
2023-03-19T10:11:35.478Z,62.64
2023-03-19T10:12:48.806Z,63.04
2023-03-19T10:14:03.198Z,63.02
2023-03-19T10:15:18.219Z,63.07
2023-03-19T10:16:25.020Z,63.67
2023-03-19T10:17:30.591Z,62.70
2023-03-19T10:18:36.248Z,62.42
2023-03-19T10:19:45.593Z,62.25
2023-03-19T10:20:53.110Z,61.75
2023-03-19T10:22:01.049Z,61.29
2023-03-19T10:23:15.617Z,61.51
2023-03-19T10:24:24.002Z,61.93
2023-03-19T10:25:28.551Z,62.66
2023-03-19T10:26:35.526Z,62.38
2023-03-19T10:27:37.661Z,62.48
2023-03-19T10:28:43.774Z,61.93
2023-03-19T10:29:46.659Z,62.33
2023-03-19T10:30:58.228Z,61.88
2023-03-19T10:32:07.597Z,62.30
2023-03-19T10:33:22.998Z,62.45
2023-03-19T10:34:31.468Z,62.91
2023-03-19T10:35:42.859Z,62.54
2023-03-19T10:36:44.400Z,63.19
2023-03-19T10:37:48.312Z,62.56
2023-03-19T10:38:50.799Z,62.52
2023-03-19T10:39:56.775Z,61.75
2023-03-19T10:41:11.456Z,62.17
2023-03-19T10:42:28.119Z,61.83
2023-03-19T10:43:31.054Z,62.65
2023-03-19T10:44:38.305Z,63.13
2023-03-19T10:45:42.459Z,64.13
2023-03-19T10:46:46.629Z,63.45
2023-03-19T10:47:56.118Z,62.73
2023-03-19T10:48:58.699Z,62.93
2023-03-19T10:50:04.624Z,62.66
2023-03-19T10:51:06.646Z,63.21
2023-03-19T10:52:20.986Z,63.19
2023-03-19T10:53:32.188Z,62.91
2023-03-19T10:54:34.727Z,63.12
2023-03-19T10:55:37.469Z,63.00
2023-03-19T10:56:47.884Z,63.46
2023-03-19T10:58:02.436Z,62.88
2023-03-19T10:59:07.338Z,63.30
2023-03-19T11:00:18.295Z,63.07
2023-03-19T11:01:21.397Z,63.34
2023-03-19T11:02:27.914Z,63.86
2023-03-19T11:03:33.400Z,63.96
2023-03-19T11:04:35.979Z,64.61
2023-03-19T11:05:38.080Z,64.69
2023-03-19T11:06:41.254Z,65.08
2023-03-19T11:07:43.861Z,65.95
2023-03-19T11:08:55.441Z,66.17
2023-03-19T11:09:58.441Z,66.24
2023-03-19T11:11:00.224Z,66.63
2023-03-19T11:12:09.470Z,67.29
2023-03-19T11:13:21.804Z,66.84
2023-03-19T11:14:30.729Z,66.50
2023-03-19T11:15:36.533Z,66.67
2023-03-19T11:16:53.176Z,66.65
2023-03-19T11:17:59.439Z,66.14
2023-03-19T11:19:02.036Z,66.35
2023-03-19T11:20:20.388Z,67.27
2023-03-19T11:21:24.799Z,66.73
2023-03-19T11:22:31.740Z,66.35
2023-03-19T11:23:39.669Z,67.25
2023-03-19T11:24:49.096Z,67.55
2023-03-19T11:25:53.966Z,67.09
2023-03-19T11:26:57.026Z,67.08
2023-03-19T11:28:01.981Z,68.14
2023-03-19T11:29:04.622Z,69.33
2023-03-19T11:30:15.364Z,70.02
2023-03-19T11:31:21.704Z,69.70
2023-03-19T11:32:41.386Z,69.66
2023-03-19T11:34:00.372Z,70.22
2023-03-19T11:35:09.516Z,70.66
2023-03-19T11:36:16.668Z,71.30
2023-03-19T11:37:29.325Z,71.16
2023-03-19T11:38:43.723Z,71.16
2023-03-19T11:39:58.751Z,71.42
2023-03-19T11:41:12.010Z,71.60
2023-03-19T11:42:46.179Z,71.24
2023-03-19T11:43:55.962Z,72.80
2023-03-19T11:45:10.072Z,73.38
2023-03-19T11:46:27.923Z,73.49
2023-03-19T11:47:40.945Z,76.14
2023-03-19T11:48:58.632Z,77.02
2023-03-19T11:50:18.065Z,78.04
2023-03-19T11:51:27.268Z,79.49
2023-03-19T11:52:39.108Z,80.72
2023-03-19T11:53:56.391Z,81.70
2023-03-19T11:55:12.225Z,81.08
2023-03-19T11:56:22.019Z,82.67
2023-03-19T11:57:35.590Z,82.52
2023-03-19T11:59:18.906Z,84.25
2023-03-19T12:00:31.392Z,85.64
2023-03-19T12:01:55.405Z,85.10
2023-03-19T12:03:44.972Z,86.40
2023-03-19T12:04:58.513Z,87.00
2023-03-19T12:06:07.422Z,87.86
2023-03-19T12:07:24.633Z,89.07
2023-03-19T12:08:39.451Z,89.00
2023-03-19T12:09:52.015Z,89.73
2023-03-19T12:11:04.445Z,89.95
2023-03-19T12:12:18.514Z,90.47
2023-03-19T12:13:32.504Z,90.42
2023-03-19T12:14:50.392Z,90.01
2023-03-19T12:16:01.317Z,90.77
2023-03-19T12:17:44.417Z,90.84
2023-03-19T12:19:12.016Z,90.60
2023-03-19T12:20:24.928Z,91.82
2023-03-19T12:21:36.218Z,91.34
2023-03-19T12:22:51.018Z,91.84
2023-03-19T12:24:04.292Z,91.23
2023-03-19T12:25:25.694Z,90.82
2023-03-19T12:26:40.535Z,90.58
2023-03-19T12:27:47.688Z,90.76
2023-03-19T12:28:58.118Z,91.25
2023-03-19T12:30:03.841Z,91.00
2023-03-19T12:31:34.235Z,91.95
2023-03-19T12:32:51.586Z,91.86
2023-03-19T12:34:12.634Z,92.55
2023-03-19T12:35:19.834Z,92.64
2023-03-19T12:36:27.019Z,92.96
2023-03-19T12:37:32.491Z,92.73
2023-03-19T12:38:40.277Z,93.88
2023-03-19T12:39:53.240Z,94.11
2023-03-19T12:41:01.074Z,94.59
2023-03-19T12:42:06.714Z,94.07
2023-03-19T12:43:18.139Z,93.95
2023-03-19T12:44:24.290Z,93.74
2023-03-19T12:45:31.363Z,93.88
2023-03-19T12:46:37.778Z,93.54
2023-03-19T12:47:41.582Z,92.08
2023-03-19T12:48:49.377Z,91.86
2023-03-19T12:49:56.986Z,92.52
2023-03-19T12:51:06.586Z,92.04
2023-03-19T12:52:19.155Z,92.23
2023-03-19T12:53:31.100Z,92.56
2023-03-19T12:54:39.300Z,91.83
2023-03-19T12:55:44.986Z,91.13
2023-03-19T12:56:53.549Z,91.13
2023-03-19T12:57:58.834Z,91.67
2023-03-19T12:59:09.852Z,90.94
2023-03-19T13:00:18.730Z,93.11
2023-03-19T13:01:26.354Z,92.47
2023-03-19T13:02:34.275Z,91.87
2023-03-19T13:03:44.567Z,91.59
2023-03-19T13:04:51.208Z,89.00
2023-03-19T13:06:00.786Z,87.98
2023-03-19T13:07:06.373Z,87.71
2023-03-19T13:08:17.205Z,86.61
2023-03-19T13:09:27.032Z,86.78
2023-03-19T13:10:31.496Z,85.64
2023-03-19T13:11:45.625Z,85.79
2023-03-19T13:12:48.744Z,86.32
2023-03-19T13:13:57.225Z,87.70
2023-03-19T13:15:06.339Z,87.82
2023-03-19T13:16:19.703Z,88.06
2023-03-19T13:17:28.684Z,88.04
2023-03-19T13:18:38.985Z,88.36
2023-03-19T13:19:46.024Z,88.73
2023-03-19T13:21:07.183Z,87.45
2023-03-19T13:22:13.641Z,86.02
2023-03-19T13:23:25.453Z,85.92
2023-03-19T13:24:30.913Z,86.30
2023-03-19T13:25:38.274Z,86.02
2023-03-19T13:26:41.405Z,86.09
2023-03-19T13:27:43.146Z,87.13
2023-03-19T13:29:00.056Z,86.64
2023-03-19T13:30:17.751Z,86.26
2023-03-19T13:31:21.839Z,87.10
2023-03-19T13:32:27.826Z,86.98
2023-03-19T13:33:31.905Z,86.51
2023-03-19T13:34:35.478Z,86.52
2023-03-19T13:35:43.538Z,87.23
2023-03-19T13:36:51.925Z,87.25
2023-03-19T13:38:03.060Z,86.44
2023-03-19T13:39:12.331Z,87.79
2023-03-19T13:40:40.538Z,87.75
2023-03-19T13:41:49.088Z,89.61
2023-03-19T13:42:57.903Z,89.18
2023-03-19T13:44:01.822Z,89.62
2023-03-19T13:45:04.917Z,88.81
2023-03-19T13:46:32.006Z,87.58
2023-03-19T13:47:42.561Z,86.91
2023-03-19T13:48:51.337Z,86.43
2023-03-19T13:50:27.560Z,85.00
2023-03-19T13:51:29.783Z,84.88
2023-03-19T13:52:49.303Z,84.51
2023-03-19T13:53:57.046Z,84.61
2023-03-19T13:55:28.132Z,84.77
2023-03-19T13:56:30.917Z,84.38
2023-03-19T13:57:35.580Z,84.01